sensor_id;sensor_type;location;lat;lon;timestamp;temperature;humidity
75495;DHT22;64072;51.466;7.260;2022-10-13T00:01:23;23.80;39.30
75495;DHT22;64072;51.466;7.260;2022-10-13T00:03:49;23.80;39.30
75495;DHT22;64072;51.466;7.260;2022-10-13T00:06:21;23.80;39.30
75495;DHT22;64072;51.466;7.260;2022-10-13T00:08:47;23.80;39.30
75495;DHT22;64072;51.466;7.260;2022-10-13T00:11:17;23.80;39.30
75495;DHT22;64072;51.466;7.260;2022-10-13T00:13:43;23.80;39.30
75495;DHT22;64072;51.466;7.260;2022-10-13T00:16:10;23.80;39.30
75495;DHT22;64072;51.466;7.260;2022-10-13T00:18:36;23.80;39.30
75495;DHT22;64072;51.466;7.260;2022-10-13T00:21:07;23.80;39.30
75495;DHT22;64072;51.466;7.260;2022-10-13T00:23:33;23.80;39.40
75495;DHT22;64072;51.466;7.260;2022-10-13T00:26:02;23.80;39.30
75495;DHT22;64072;51.466;7.260;2022-10-13T00:28:28;23.80;39.40
75495;DHT22;64072;51.466;7.260;2022-10-13T00:30:53;23.80;39.30
75495;DHT22;64072;51.466;7.260;2022-10-13T00:33:19;23.80;39.40
75495;DHT22;64072;51.466;7.260;2022-10-13T00:35:46;23.80;39.40
75495;DHT22;64072;51.466;7.260;2022-10-13T00:38:12;23.80;39.40
75495;DHT22;64072;51.466;7.260;2022-10-13T00:40:55;23.80;39.40
75495;DHT22;64072;51.466;7.260;2022-10-13T00:43:24;23.80;39.40
75495;DHT22;64072;51.466;7.260;2022-10-13T00:45:50;23.80;39.40
75495;DHT22;64072;51.466;7.260;2022-10-13T00:48:23;23.70;39.40
75495;DHT22;64072;51.466;7.260;2022-10-13T00:50:49;23.80;39.40
75495;DHT22;64072;51.466;7.260;2022-10-13T00:53:17;23.70;39.40
75495;DHT22;64072;51.466;7.260;2022-10-13T00:55:45;23.70;39.50
75495;DHT22;64072;51.466;7.260;2022-10-13T00:58:13;23.70;39.50
75495;DHT22;64072;51.466;7.260;2022-10-13T01:00:44;23.70;39.60
75495;DHT22;64072;51.466;7.260;2022-10-13T01:03:11;23.70;39.50
75495;DHT22;64072;51.466;7.260;2022-10-13T01:05:38;23.70;39.60
75495;DHT22;64072;51.466;7.260;2022-10-13T01:08:04;23.70;39.60
75495;DHT22;64072;51.466;7.260;2022-10-13T01:13:36;23.70;39.70
75495;DHT22;64072;51.466;7.260;2022-10-13T01:16:12;23.60;39.70
75495;DHT22;64072;51.466;7.260;2022-10-13T01:18:54;23.60;39.70
75495;DHT22;64072;51.466;7.260;2022-10-13T01:30:09;23.60;39.80
75495;DHT22;64072;51.466;7.260;2022-10-13T01:32:53;23.60;39.80
75495;DHT22;64072;51.466;7.260;2022-10-13T01:35:59;23.60;39.80
75495;DHT22;64072;51.466;7.260;2022-10-13T01:41:36;23.60;39.70
75495;DHT22;64072;51.466;7.260;2022-10-13T01:44:22;23.60;39.70
75495;DHT22;64072;51.466;7.260;2022-10-13T01:46:50;23.70;39.60
75495;DHT22;64072;51.466;7.260;2022-10-13T01:49:18;23.70;39.60
75495;DHT22;64072;51.466;7.260;2022-10-13T01:51:45;23.70;39.50
75495;DHT22;64072;51.466;7.260;2022-10-13T01:54:11;23.80;39.50
75495;DHT22;64072;51.466;7.260;2022-10-13T01:56:37;23.80;39.50
75495;DHT22;64072;51.466;7.260;2022-10-13T01:59:10;23.80;39.50
75495;DHT22;64072;51.466;7.260;2022-10-13T02:06:57;23.80;39.40
75495;DHT22;64072;51.466;7.260;2022-10-13T02:09:41;23.80;39.40
75495;DHT22;64072;51.466;7.260;2022-10-13T02:12:15;23.80;39.40
75495;DHT22;64072;51.466;7.260;2022-10-13T02:14:44;23.80;39.40
75495;DHT22;64072;51.466;7.260;2022-10-13T02:17:11;23.80;39.40
75495;DHT22;64072;51.466;7.260;2022-10-13T02:19:38;23.80;39.40
75495;DHT22;64072;51.466;7.260;2022-10-13T02:22:05;23.80;39.40
75495;DHT22;64072;51.466;7.260;2022-10-13T02:24:32;23.80;39.40
75495;DHT22;64072;51.466;7.260;2022-10-13T02:26:58;23.80;39.40
75495;DHT22;64072;51.466;7.260;2022-10-13T02:29:24;23.80;39.50
75495;DHT22;64072;51.466;7.260;2022-10-13T02:31:50;23.80;39.50
75495;DHT22;64072;51.466;7.260;2022-10-13T02:34:15;23.80;39.40
75495;DHT22;64072;51.466;7.260;2022-10-13T02:36:41;23.80;39.50
75495;DHT22;64072;51.466;7.260;2022-10-13T02:39:08;23.80;39.50
75495;DHT22;64072;51.466;7.260;2022-10-13T02:41:34;23.70;39.50
75495;DHT22;64072;51.466;7.260;2022-10-13T02:44:00;23.70;39.50
75495;DHT22;64072;51.466;7.260;2022-10-13T02:46:25;23.80;39.50
75495;DHT22;64072;51.466;7.260;2022-10-13T02:48:51;23.80;39.60
75495;DHT22;64072;51.466;7.260;2022-10-13T02:51:16;23.70;39.60
75495;DHT22;64072;51.466;7.260;2022-10-13T02:53:42;23.70;39.60
75495;DHT22;64072;51.466;7.260;2022-10-13T02:56:08;23.70;39.60
75495;DHT22;64072;51.466;7.260;2022-10-13T02:58:34;23.70;39.60
75495;DHT22;64072;51.466;7.260;2022-10-13T03:01:10;23.70;39.60
75495;DHT22;64072;51.466;7.260;2022-10-13T03:03:36;23.70;39.60
75495;DHT22;64072;51.466;7.260;2022-10-13T03:06:03;23.60;39.70
75495;DHT22;64072;51.466;7.260;2022-10-13T03:08:30;23.60;39.70
75495;DHT22;64072;51.466;7.260;2022-10-13T03:10:55;23.60;39.80
75495;DHT22;64072;51.466;7.260;2022-10-13T03:13:22;23.60;39.90
75495;DHT22;64072;51.466;7.260;2022-10-13T03:15:47;23.60;39.90
75495;DHT22;64072;51.466;7.260;2022-10-13T03:18:13;23.60;39.90
75495;DHT22;64072;51.466;7.260;2022-10-13T03:20:39;23.60;39.90
75495;DHT22;64072;51.466;7.260;2022-10-13T03:23:05;23.60;39.90
75495;DHT22;64072;51.466;7.260;2022-10-13T03:25:34;23.60;39.90
75495;DHT22;64072;51.466;7.260;2022-10-13T03:28:00;23.60;39.90
75495;DHT22;64072;51.466;7.260;2022-10-13T03:30:25;23.60;39.90
75495;DHT22;64072;51.466;7.260;2022-10-13T03:32:51;23.60;39.90
75495;DHT22;64072;51.466;7.260;2022-10-13T03:35:17;23.60;39.90
75495;DHT22;64072;51.466;7.260;2022-10-13T03:37:43;23.60;39.90
75495;DHT22;64072;51.466;7.260;2022-10-13T03:40:09;23.60;39.90
75495;DHT22;64072;51.466;7.260;2022-10-13T03:42:35;23.60;39.90
75495;DHT22;64072;51.466;7.260;2022-10-13T03:45:01;23.60;39.80
75495;DHT22;64072;51.466;7.260;2022-10-13T03:47:27;23.70;39.70
75495;DHT22;64072;51.466;7.260;2022-10-13T03:49:53;23.70;39.70
75495;DHT22;64072;51.466;7.260;2022-10-13T03:52:20;23.70;39.60
75495;DHT22;64072;51.466;7.260;2022-10-13T03:54:46;23.70;39.60
75495;DHT22;64072;51.466;7.260;2022-10-13T03:57:11;23.80;39.60
75495;DHT22;64072;51.466;7.260;2022-10-13T03:59:39;23.80;39.50
75495;DHT22;64072;51.466;7.260;2022-10-13T04:02:05;23.80;39.50
75495;DHT22;64072;51.466;7.260;2022-10-13T04:04:31;23.80;39.50
75495;DHT22;64072;51.466;7.260;2022-10-13T04:06:57;23.80;39.50
75495;DHT22;64072;51.466;7.260;2022-10-13T04:09:22;23.80;39.50
75495;DHT22;64072;51.466;7.260;2022-10-13T04:11:51;23.80;39.50
75495;DHT22;64072;51.466;7.260;2022-10-13T04:14:17;23.80;39.50
75495;DHT22;64072;51.466;7.260;2022-10-13T04:16:45;23.80;39.50
75495;DHT22;64072;51.466;7.260;2022-10-13T04:19:11;23.80;39.50
75495;DHT22;64072;51.466;7.260;2022-10-13T04:21:38;23.80;39.60
75495;DHT22;64072;51.466;7.260;2022-10-13T04:24:04;23.80;39.50
75495;DHT22;64072;51.466;7.260;2022-10-13T04:26:33;23.80;39.50
75495;DHT22;64072;51.466;7.260;2022-10-13T04:29:01;23.80;39.50
75495;DHT22;64072;51.466;7.260;2022-10-13T04:31:28;23.80;39.50
75495;DHT22;64072;51.466;7.260;2022-10-13T04:33:54;23.80;39.50
75495;DHT22;64072;51.466;7.260;2022-10-13T04:36:20;23.80;39.60
75495;DHT22;64072;51.466;7.260;2022-10-13T04:38:46;23.80;39.50
75495;DHT22;64072;51.466;7.260;2022-10-13T04:41:13;23.70;39.50
75495;DHT22;64072;51.466;7.260;2022-10-13T04:43:39;23.80;39.60
75495;DHT22;64072;51.466;7.260;2022-10-13T04:46:28;23.80;39.60
75495;DHT22;64072;51.466;7.260;2022-10-13T04:48:53;23.80;39.60
75495;DHT22;64072;51.466;7.260;2022-10-13T04:51:22;23.70;39.70
75495;DHT22;64072;51.466;7.260;2022-10-13T04:53:52;23.70;39.70
75495;DHT22;64072;51.466;7.260;2022-10-13T04:56:18;23.70;39.70
75495;DHT22;64072;51.466;7.260;2022-10-13T04:58:45;23.70;39.70
75495;DHT22;64072;51.466;7.260;2022-10-13T05:01:16;23.70;39.80
75495;DHT22;64072;51.466;7.260;2022-10-13T05:03:42;23.60;39.80
75495;DHT22;64072;51.466;7.260;2022-10-13T05:06:23;23.60;39.90
75495;DHT22;64072;51.466;7.260;2022-10-13T05:08:49;23.60;39.90
75495;DHT22;64072;51.466;7.260;2022-10-13T05:11:16;23.60;39.90
75495;DHT22;64072;51.466;7.260;2022-10-13T05:13:42;23.60;39.90
75495;DHT22;64072;51.466;7.260;2022-10-13T05:16:09;23.70;40.00
75495;DHT22;64072;51.466;7.260;2022-10-13T05:18:36;23.70;40.10
75495;DHT22;64072;51.466;7.260;2022-10-13T05:21:12;23.70;40.10
75495;DHT22;64072;51.466;7.260;2022-10-13T05:23:39;23.80;40.30
75495;DHT22;64072;51.466;7.260;2022-10-13T05:26:07;23.70;40.30
75495;DHT22;64072;51.466;7.260;2022-10-13T05:28:33;23.80;40.40
75495;DHT22;64072;51.466;7.260;2022-10-13T05:31:32;23.80;40.50
75495;DHT22;64072;51.466;7.260;2022-10-13T05:33:58;23.80;40.60
75495;DHT22;64072;51.466;7.260;2022-10-13T05:36:30;23.80;40.60
75495;DHT22;64072;51.466;7.260;2022-10-13T05:38:58;23.80;40.60
75495;DHT22;64072;51.466;7.260;2022-10-13T05:41:25;23.80;40.70
75495;DHT22;64072;51.466;7.260;2022-10-13T05:43:53;23.80;40.60
75495;DHT22;64072;51.466;7.260;2022-10-13T05:46:22;23.80;40.70
75495;DHT22;64072;51.466;7.260;2022-10-13T05:48:47;23.80;40.80
75495;DHT22;64072;51.466;7.260;2022-10-13T05:51:16;23.80;40.70
75495;DHT22;64072;51.466;7.260;2022-10-13T05:53:46;23.80;40.80
75495;DHT22;64072;51.466;7.260;2022-10-13T05:56:19;23.80;40.80
75495;DHT22;64072;51.466;7.260;2022-10-13T05:58:49;23.80;40.80
75495;DHT22;64072;51.466;7.260;2022-10-13T06:01:19;23.80;40.90
75495;DHT22;64072;51.466;7.260;2022-10-13T06:03:46;23.80;40.80
75495;DHT22;64072;51.466;7.260;2022-10-13T06:06:13;23.80;40.90
75495;DHT22;64072;51.466;7.260;2022-10-13T06:08:38;23.80;40.90
75495;DHT22;64072;51.466;7.260;2022-10-13T06:11:04;23.80;40.90
75495;DHT22;64072;51.466;7.260;2022-10-13T06:13:31;23.80;40.90
75495;DHT22;64072;51.466;7.260;2022-10-13T06:15:58;23.80;41.00
75495;DHT22;64072;51.466;7.260;2022-10-13T06:18:23;23.80;41.00
75495;DHT22;64072;51.466;7.260;2022-10-13T06:20:49;23.80;41.00
75495;DHT22;64072;51.466;7.260;2022-10-13T06:23:15;23.80;41.10
75495;DHT22;64072;51.466;7.260;2022-10-13T06:25:47;23.80;41.10
75495;DHT22;64072;51.466;7.260;2022-10-13T06:28:14;23.80;41.10
75495;DHT22;64072;51.466;7.260;2022-10-13T06:30:40;23.80;41.10
75495;DHT22;64072;51.466;7.260;2022-10-13T06:33:07;23.80;41.10
75495;DHT22;64072;51.466;7.260;2022-10-13T06:35:34;23.80;41.10
75495;DHT22;64072;51.466;7.260;2022-10-13T06:38:00;23.80;41.20
75495;DHT22;64072;51.466;7.260;2022-10-13T06:40:26;23.80;41.10
75495;DHT22;64072;51.466;7.260;2022-10-13T06:42:51;23.80;41.10
75495;DHT22;64072;51.466;7.260;2022-10-13T06:45:17;23.80;41.20
75495;DHT22;64072;51.466;7.260;2022-10-13T06:47:44;23.80;41.20
75495;DHT22;64072;51.466;7.260;2022-10-13T06:50:10;23.80;41.20
75495;DHT22;64072;51.466;7.260;2022-10-13T06:52:36;23.80;41.20
75495;DHT22;64072;51.466;7.260;2022-10-13T06:55:03;23.80;41.20
75495;DHT22;64072;51.466;7.260;2022-10-13T06:57:28;23.80;41.20
75495;DHT22;64072;51.466;7.260;2022-10-13T06:59:54;23.80;41.20
75495;DHT22;64072;51.466;7.260;2022-10-13T07:02:19;23.80;41.30
75495;DHT22;64072;51.466;7.260;2022-10-13T07:04:46;23.80;41.30
75495;DHT22;64072;51.466;7.260;2022-10-13T07:07:12;23.70;41.30
75495;DHT22;64072;51.466;7.260;2022-10-13T07:09:38;23.80;41.30
75495;DHT22;64072;51.466;7.260;2022-10-13T07:12:03;23.80;41.30
75495;DHT22;64072;51.466;7.260;2022-10-13T07:14:29;23.70;41.30
75495;DHT22;64072;51.466;7.260;2022-10-13T07:16:55;23.80;41.30
75495;DHT22;64072;51.466;7.260;2022-10-13T07:19:20;23.80;41.30
75495;DHT22;64072;51.466;7.260;2022-10-13T07:21:46;23.80;41.40
75495;DHT22;64072;51.466;7.260;2022-10-13T07:24:11;23.80;41.30
75495;DHT22;64072;51.466;7.260;2022-10-13T07:26:37;23.80;41.40
75495;DHT22;64072;51.466;7.260;2022-10-13T07:29:02;23.80;41.40
75495;DHT22;64072;51.466;7.260;2022-10-13T07:31:28;23.80;41.30
75495;DHT22;64072;51.466;7.260;2022-10-13T07:33:54;23.80;41.30
75495;DHT22;64072;51.466;7.260;2022-10-13T07:36:21;23.80;41.40
75495;DHT22;64072;51.466;7.260;2022-10-13T07:38:46;23.80;41.40
75495;DHT22;64072;51.466;7.260;2022-10-13T07:41:13;23.90;41.30
75495;DHT22;64072;51.466;7.260;2022-10-13T07:43:39;23.90;41.40
75495;DHT22;64072;51.466;7.260;2022-10-13T07:46:06;23.90;41.30
75495;DHT22;64072;51.466;7.260;2022-10-13T07:48:32;23.90;41.30
75495;DHT22;64072;51.466;7.260;2022-10-13T07:50:58;24.00;41.30
75495;DHT22;64072;51.466;7.260;2022-10-13T07:53:27;24.00;41.30
75495;DHT22;64072;51.466;7.260;2022-10-13T07:55:52;24.00;41.30
75495;DHT22;64072;51.466;7.260;2022-10-13T07:58:18;24.00;41.30
75495;DHT22;64072;51.466;7.260;2022-10-13T08:00:43;24.00;41.30
75495;DHT22;64072;51.466;7.260;2022-10-13T08:03:09;24.00;41.30
75495;DHT22;64072;51.466;7.260;2022-10-13T08:05:37;24.00;41.30
75495;DHT22;64072;51.466;7.260;2022-10-13T08:08:03;24.10;41.30
75495;DHT22;64072;51.466;7.260;2022-10-13T08:10:29;24.00;41.40
75495;DHT22;64072;51.466;7.260;2022-10-13T08:12:54;24.10;41.40
75495;DHT22;64072;51.466;7.260;2022-10-13T08:15:20;24.10;41.40
75495;DHT22;64072;51.466;7.260;2022-10-13T08:17:46;24.00;41.50
75495;DHT22;64072;51.466;7.260;2022-10-13T08:20:11;24.10;41.50
75495;DHT22;64072;51.466;7.260;2022-10-13T08:22:38;24.00;41.60
75495;DHT22;64072;51.466;7.260;2022-10-13T08:25:03;24.10;41.60
75495;DHT22;64072;51.466;7.260;2022-10-13T08:27:31;24.10;41.70
75495;DHT22;64072;51.466;7.260;2022-10-13T08:29:57;24.10;41.80
75495;DHT22;64072;51.466;7.260;2022-10-13T08:32:22;24.10;41.80
75495;DHT22;64072;51.466;7.260;2022-10-13T08:34:49;24.10;41.80
75495;DHT22;64072;51.466;7.260;2022-10-13T08:37:17;24.20;41.80
75495;DHT22;64072;51.466;7.260;2022-10-13T08:39:43;24.20;41.80
75495;DHT22;64072;51.466;7.260;2022-10-13T08:42:17;24.20;41.80
75495;DHT22;64072;51.466;7.260;2022-10-13T08:44:47;24.30;41.70
75495;DHT22;64072;51.466;7.260;2022-10-13T08:49:54;24.30;41.80
75495;DHT22;64072;51.466;7.260;2022-10-13T08:52:23;24.30;41.90
75495;DHT22;64072;51.466;7.260;2022-10-13T08:54:50;24.30;42.00
75495;DHT22;64072;51.466;7.260;2022-10-13T08:57:17;24.30;41.90
75495;DHT22;64072;51.466;7.260;2022-10-13T08:59:43;24.30;41.90
75495;DHT22;64072;51.466;7.260;2022-10-13T09:02:22;24.40;41.90
75495;DHT22;64072;51.466;7.260;2022-10-13T09:04:49;24.40;41.90
75495;DHT22;64072;51.466;7.260;2022-10-13T09:07:22;24.40;42.00
75495;DHT22;64072;51.466;7.260;2022-10-13T09:09:49;24.40;41.90
75495;DHT22;64072;51.466;7.260;2022-10-13T09:12:16;24.40;41.90
75495;DHT22;64072;51.466;7.260;2022-10-13T09:15:05;24.40;42.00
75495;DHT22;64072;51.466;7.260;2022-10-13T09:17:33;24.40;41.90
75495;DHT22;64072;51.466;7.260;2022-10-13T09:22:43;24.40;41.90
75495;DHT22;64072;51.466;7.260;2022-10-13T09:25:20;24.40;42.00
75495;DHT22;64072;51.466;7.260;2022-10-13T09:27:50;24.40;42.00
75495;DHT22;64072;51.466;7.260;2022-10-13T09:30:25;24.40;42.00
75495;DHT22;64072;51.466;7.260;2022-10-13T09:33:06;24.50;42.10
75495;DHT22;64072;51.466;7.260;2022-10-13T09:36:24;24.50;42.00
75495;DHT22;64072;51.466;7.260;2022-10-13T09:38:25;24.50;42.00
75495;DHT22;64072;51.466;7.260;2022-10-13T09:43:40;24.60;42.00
75495;DHT22;64072;51.466;7.260;2022-10-13T09:46:22;24.60;42.00
75495;DHT22;64072;51.466;7.260;2022-10-13T09:48:50;24.60;42.00
75495;DHT22;64072;51.466;7.260;2022-10-13T09:51:48;24.60;42.00
75495;DHT22;64072;51.466;7.260;2022-10-13T10:00:18;24.70;41.90
75495;DHT22;64072;51.466;7.260;2022-10-13T10:05:26;24.70;41.90
75495;DHT22;64072;51.466;7.260;2022-10-13T10:07:56;24.70;41.80
75495;DHT22;64072;51.466;7.260;2022-10-13T10:10:36;24.70;41.80
75495;DHT22;64072;51.466;7.260;2022-10-13T10:13:03;24.70;41.80
75495;DHT22;64072;51.466;7.260;2022-10-13T10:18:13;24.70;41.80
75495;DHT22;64072;51.466;7.260;2022-10-13T10:23:18;24.70;41.80
75495;DHT22;64072;51.466;7.260;2022-10-13T10:25:50;24.70;41.80
75495;DHT22;64072;51.466;7.260;2022-10-13T10:28:55;24.80;41.80
75495;DHT22;64072;51.466;7.260;2022-10-13T10:31:38;24.80;41.80
75495;DHT22;64072;51.466;7.260;2022-10-13T10:39:45;24.80;41.70
75495;DHT22;64072;51.466;7.260;2022-10-13T10:43:07;24.80;41.70
75495;DHT22;64072;51.466;7.260;2022-10-13T10:45:26;24.80;41.80
75495;DHT22;64072;51.466;7.260;2022-10-13T10:47:57;24.80;41.70
75495;DHT22;64072;51.466;7.260;2022-10-13T10:50:24;24.90;41.70
75495;DHT22;64072;51.466;7.260;2022-10-13T10:55:53;24.90;41.70
75495;DHT22;64072;51.466;7.260;2022-10-13T11:01:16;24.90;41.60
75495;DHT22;64072;51.466;7.260;2022-10-13T11:06:39;24.90;41.60
75495;DHT22;64072;51.466;7.260;2022-10-13T11:09:05;24.90;41.60
75495;DHT22;64072;51.466;7.260;2022-10-13T11:11:37;24.90;41.60
75495;DHT22;64072;51.466;7.260;2022-10-13T11:16:58;25.00;41.60
75495;DHT22;64072;51.466;7.260;2022-10-13T11:19:38;25.00;41.60
75495;DHT22;64072;51.466;7.260;2022-10-13T11:27:23;25.00;41.60
75495;DHT22;64072;51.466;7.260;2022-10-13T11:29:57;25.00;41.50
75495;DHT22;64072;51.466;7.260;2022-10-13T11:51:16;25.00;41.60
75495;DHT22;64072;51.466;7.260;2022-10-13T11:56:55;25.00;41.60
75495;DHT22;64072;51.466;7.260;2022-10-13T12:01:56;25.00;41.70
75495;DHT22;64072;51.466;7.260;2022-10-13T12:04:23;25.00;41.70
75495;DHT22;64072;51.466;7.260;2022-10-13T12:07:01;25.00;41.70
75495;DHT22;64072;51.466;7.260;2022-10-13T12:09:29;25.00;41.70
75495;DHT22;64072;51.466;7.260;2022-10-13T12:12:11;25.00;41.70
75495;DHT22;64072;51.466;7.260;2022-10-13T12:14:43;25.00;41.70
75495;DHT22;64072;51.466;7.260;2022-10-13T12:17:28;25.00;41.80
75495;DHT22;64072;51.466;7.260;2022-10-13T12:19:57;25.10;41.70
75495;DHT22;64072;51.466;7.260;2022-10-13T12:22:23;25.00;41.80
75495;DHT22;64072;51.466;7.260;2022-10-13T12:25:03;25.00;41.80
75495;DHT22;64072;51.466;7.260;2022-10-13T12:27:31;25.00;41.80
75495;DHT22;64072;51.466;7.260;2022-10-13T12:30:00;25.00;41.80
75495;DHT22;64072;51.466;7.260;2022-10-13T12:32:29;25.00;41.80
75495;DHT22;64072;51.466;7.260;2022-10-13T12:34:55;25.00;41.90
75495;DHT22;64072;51.466;7.260;2022-10-13T12:39:51;25.00;41.80
75495;DHT22;64072;51.466;7.260;2022-10-13T12:42:17;25.00;41.90
75495;DHT22;64072;51.466;7.260;2022-10-13T12:44:43;25.00;41.80
75495;DHT22;64072;51.466;7.260;2022-10-13T12:50:31;25.00;41.90
75495;DHT22;64072;51.466;7.260;2022-10-13T12:53:18;25.00;42.00
75495;DHT22;64072;51.466;7.260;2022-10-13T12:55:51;25.00;42.00
75495;DHT22;64072;51.466;7.260;2022-10-13T12:58:23;25.00;42.10
75495;DHT22;64072;51.466;7.260;2022-10-13T13:03:39;25.00;42.20
75495;DHT22;64072;51.466;7.260;2022-10-13T13:06:09;24.90;42.30
75495;DHT22;64072;51.466;7.260;2022-10-13T13:08:35;25.00;42.30
75495;DHT22;64072;51.466;7.260;2022-10-13T13:11:03;25.00;42.40
75495;DHT22;64072;51.466;7.260;2022-10-13T13:13:29;25.00;42.40
75495;DHT22;64072;51.466;7.260;2022-10-13T13:16:14;25.00;42.50
75495;DHT22;64072;51.466;7.260;2022-10-13T13:18:44;25.00;42.60
75495;DHT22;64072;51.466;7.260;2022-10-13T13:21:18;25.00;42.60
75495;DHT22;64072;51.466;7.260;2022-10-13T13:23:45;25.00;42.80
75495;DHT22;64072;51.466;7.260;2022-10-13T13:26:17;25.00;42.80
75495;DHT22;64072;51.466;7.260;2022-10-13T13:28:48;25.00;42.90
75495;DHT22;64072;51.466;7.260;2022-10-13T13:31:16;24.90;43.00
75495;DHT22;64072;51.466;7.260;2022-10-13T13:33:41;24.90;43.00
75495;DHT22;64072;51.466;7.260;2022-10-13T13:36:22;24.90;43.20
75495;DHT22;64072;51.466;7.260;2022-10-13T13:38:48;24.90;43.30
75495;DHT22;64072;51.466;7.260;2022-10-13T13:41:14;24.90;43.30
75495;DHT22;64072;51.466;7.260;2022-10-13T13:43:41;24.90;43.40
75495;DHT22;64072;51.466;7.260;2022-10-13T13:46:13;24.90;43.40
75495;DHT22;64072;51.466;7.260;2022-10-13T13:48:39;24.90;43.60
75495;DHT22;64072;51.466;7.260;2022-10-13T13:51:06;24.90;43.60
75495;DHT22;64072;51.466;7.260;2022-10-13T13:53:32;24.90;43.70
75495;DHT22;64072;51.466;7.260;2022-10-13T13:55:57;24.90;43.70
75495;DHT22;64072;51.466;7.260;2022-10-13T13:58:23;24.90;43.70
75495;DHT22;64072;51.466;7.260;2022-10-13T14:00:48;24.90;43.80
75495;DHT22;64072;51.466;7.260;2022-10-13T14:03:14;24.90;43.70
75495;DHT22;64072;51.466;7.260;2022-10-13T14:05:40;24.90;43.80
75495;DHT22;64072;51.466;7.260;2022-10-13T14:08:06;24.90;43.90
75495;DHT22;64072;51.466;7.260;2022-10-13T14:10:31;24.90;43.90
75495;DHT22;64072;51.466;7.260;2022-10-13T14:12:57;24.90;43.90
75495;DHT22;64072;51.466;7.260;2022-10-13T14:15:23;24.90;44.00
75495;DHT22;64072;51.466;7.260;2022-10-13T14:17:51;24.90;43.90
75495;DHT22;64072;51.466;7.260;2022-10-13T14:20:17;24.90;43.90
75495;DHT22;64072;51.466;7.260;2022-10-13T14:22:42;24.90;43.90
75495;DHT22;64072;51.466;7.260;2022-10-13T14:25:08;24.90;44.00
75495;DHT22;64072;51.466;7.260;2022-10-13T14:27:34;24.90;43.90
75495;DHT22;64072;51.466;7.260;2022-10-13T14:30:02;24.90;44.00
75495;DHT22;64072;51.466;7.260;2022-10-13T14:32:27;24.90;44.00
75495;DHT22;64072;51.466;7.260;2022-10-13T14:34:53;24.90;43.90
75495;DHT22;64072;51.466;7.260;2022-10-13T14:37:18;24.90;44.00
75495;DHT22;64072;51.466;7.260;2022-10-13T14:39:44;24.90;44.00
75495;DHT22;64072;51.466;7.260;2022-10-13T14:42:10;24.90;44.00
75495;DHT22;64072;51.466;7.260;2022-10-13T14:44:35;24.80;44.00
75495;DHT22;64072;51.466;7.260;2022-10-13T14:47:01;24.80;44.10
75495;DHT22;64072;51.466;7.260;2022-10-13T14:49:27;24.80;44.10
75495;DHT22;64072;51.466;7.260;2022-10-13T14:51:52;24.90;44.10
75495;DHT22;64072;51.466;7.260;2022-10-13T14:54:18;24.80;44.10
75495;DHT22;64072;51.466;7.260;2022-10-13T14:56:44;24.80;44.20
75495;DHT22;64072;51.466;7.260;2022-10-13T14:59:10;24.80;44.20
75495;DHT22;64072;51.466;7.260;2022-10-13T15:01:36;24.80;44.20
75495;DHT22;64072;51.466;7.260;2022-10-13T15:04:03;24.80;44.30
75495;DHT22;64072;51.466;7.260;2022-10-13T15:06:29;24.80;44.30
75495;DHT22;64072;51.466;7.260;2022-10-13T15:08:55;24.80;44.30
75495;DHT22;64072;51.466;7.260;2022-10-13T15:11:20;24.80;44.40
75495;DHT22;64072;51.466;7.260;2022-10-13T15:13:46;24.80;44.40
75495;DHT22;64072;51.466;7.260;2022-10-13T15:16:18;24.90;44.50
75495;DHT22;64072;51.466;7.260;2022-10-13T15:18:44;24.80;44.50
75495;DHT22;64072;51.466;7.260;2022-10-13T15:21:10;24.80;44.50
75495;DHT22;64072;51.466;7.260;2022-10-13T15:23:36;24.80;44.60
75495;DHT22;64072;51.466;7.260;2022-10-13T15:26:02;24.80;44.60
75495;DHT22;64072;51.466;7.260;2022-10-13T15:28:33;24.80;44.60
75495;DHT22;64072;51.466;7.260;2022-10-13T15:30:59;24.80;44.70
75495;DHT22;64072;51.466;7.260;2022-10-13T15:33:25;24.80;44.70
75495;DHT22;64072;51.466;7.260;2022-10-13T15:35:51;24.80;44.70
75495;DHT22;64072;51.466;7.260;2022-10-13T15:38:18;24.80;44.70
75495;DHT22;64072;51.466;7.260;2022-10-13T15:40:44;24.80;44.70
75495;DHT22;64072;51.466;7.260;2022-10-13T15:43:10;24.80;44.80
75495;DHT22;64072;51.466;7.260;2022-10-13T15:45:36;24.80;44.80
75495;DHT22;64072;51.466;7.260;2022-10-13T15:48:03;24.80;44.80
75495;DHT22;64072;51.466;7.260;2022-10-13T15:50:29;24.80;44.90
75495;DHT22;64072;51.466;7.260;2022-10-13T15:52:55;24.80;45.00
75495;DHT22;64072;51.466;7.260;2022-10-13T15:55:21;24.80;45.00
75495;DHT22;64072;51.466;7.260;2022-10-13T15:57:47;24.80;45.10
75495;DHT22;64072;51.466;7.260;2022-10-13T16:00:13;24.80;45.20
75495;DHT22;64072;51.466;7.260;2022-10-13T16:02:40;24.80;45.10
75495;DHT22;64072;51.466;7.260;2022-10-13T16:05:07;24.80;45.30
75495;DHT22;64072;51.466;7.260;2022-10-13T16:07:34;24.80;45.30
75495;DHT22;64072;51.466;7.260;2022-10-13T16:10:00;24.80;45.20
75495;DHT22;64072;51.466;7.260;2022-10-13T16:12:29;24.80;45.10
75495;DHT22;64072;51.466;7.260;2022-10-13T16:14:54;24.80;44.90
75495;DHT22;64072;51.466;7.260;2022-10-13T16:17:20;24.70;44.80
75495;DHT22;64072;51.466;7.260;2022-10-13T16:19:46;24.70;44.80
75495;DHT22;64072;51.466;7.260;2022-10-13T16:22:12;24.70;44.80
75495;DHT22;64072;51.466;7.260;2022-10-13T16:24:38;24.70;44.80
75495;DHT22;64072;51.466;7.260;2022-10-13T16:27:04;24.70;44.80
75495;DHT22;64072;51.466;7.260;2022-10-13T16:29:29;24.60;44.80
75495;DHT22;64072;51.466;7.260;2022-10-13T16:31:55;24.60;44.80
75495;DHT22;64072;51.466;7.260;2022-10-13T16:34:20;24.60;44.80
75495;DHT22;64072;51.466;7.260;2022-10-13T16:36:47;24.60;44.80
75495;DHT22;64072;51.466;7.260;2022-10-13T16:39:13;24.60;44.80
75495;DHT22;64072;51.466;7.260;2022-10-13T16:41:38;24.60;44.80
75495;DHT22;64072;51.466;7.260;2022-10-13T16:44:04;24.60;44.80
75495;DHT22;64072;51.466;7.260;2022-10-13T16:46:30;24.60;44.80
75495;DHT22;64072;51.466;7.260;2022-10-13T16:48:57;24.50;44.80
75495;DHT22;64072;51.466;7.260;2022-10-13T16:51:24;24.50;44.80
75495;DHT22;64072;51.466;7.260;2022-10-13T16:53:52;24.50;44.80
75495;DHT22;64072;51.466;7.260;2022-10-13T16:56:18;24.50;44.70
75495;DHT22;64072;51.466;7.260;2022-10-13T16:58:52;24.50;44.80
75495;DHT22;64072;51.466;7.260;2022-10-13T17:01:18;24.50;44.70
75495;DHT22;64072;51.466;7.260;2022-10-13T17:03:44;24.50;44.70
75495;DHT22;64072;51.466;7.260;2022-10-13T17:06:11;24.50;44.80
75495;DHT22;64072;51.466;7.260;2022-10-13T17:08:38;24.50;44.70
75495;DHT22;64072;51.466;7.260;2022-10-13T17:11:05;24.50;44.70
75495;DHT22;64072;51.466;7.260;2022-10-13T17:13:31;24.50;44.70
75495;DHT22;64072;51.466;7.260;2022-10-13T17:15:58;24.50;44.70